sensor_id;sensor_type;location;lat;lon;timestamp;pressure;altitude;pressure_sealevel;temperature;humidity
75521;BME280;64102;48.628;9.002;2024-01-25T00:02:01;97146.41;;;7.54;100.00
75521;BME280;64102;48.628;9.002;2024-01-25T00:04:28;97149.06;;;7.53;100.00
75521;BME280;64102;48.628;9.002;2024-01-25T00:06:53;97156.66;;;7.54;100.00
75521;BME280;64102;48.628;9.002;2024-01-25T00:09:18;97154.22;;;7.53;100.00
75521;BME280;64102;48.628;9.002;2024-01-25T00:11:44;97152.47;;;7.53;100.00
75521;BME280;64102;48.628;9.002;2024-01-25T00:14:09;97144.03;;;7.51;100.00
75521;BME280;64102;48.628;9.002;2024-01-25T00:16:35;97151.09;;;7.48;100.00
75521;BME280;64102;48.628;9.002;2024-01-25T00:19:00;97149.28;;;7.50;100.00
75521;BME280;64102;48.628;9.002;2024-01-25T00:21:25;97151.72;;;7.51;100.00
75521;BME280;64102;48.628;9.002;2024-01-25T00:23:50;97142.47;;;7.49;100.00
75521;BME280;64102;48.628;9.002;2024-01-25T00:26:16;97148.63;;;7.46;100.00
75521;BME280;64102;48.628;9.002;2024-01-25T00:28:41;97143.69;;;7.43;100.00
75521;BME280;64102;48.628;9.002;2024-01-25T00:31:06;97145.13;;;7.47;100.00
75521;BME280;64102;48.628;9.002;2024-01-25T00:33:32;97139.38;;;7.44;100.00
75521;BME280;64102;48.628;9.002;2024-01-25T00:35:57;97147.06;;;7.44;100.00
75521;BME280;64102;48.628;9.002;2024-01-25T00:38:23;97141.19;;;7.42;100.00
75521;BME280;64102;48.628;9.002;2024-01-25T00:40:49;97132.66;;;7.41;100.00
75521;BME280;64102;48.628;9.002;2024-01-25T00:43:14;97137.78;;;7.41;100.00
75521;BME280;64102;48.628;9.002;2024-01-25T00:45:40;97137.00;;;7.41;100.00
75521;BME280;64102;48.628;9.002;2024-01-25T00:48:06;97125.78;;;7.42;100.00
75521;BME280;64102;48.628;9.002;2024-01-25T00:50:31;97132.66;;;7.41;100.00
75521;BME280;64102;48.628;9.002;2024-01-25T00:52:57;97139.44;;;7.42;100.00
75521;BME280;64102;48.628;9.002;2024-01-25T00:55:22;97134.31;;;7.42;100.00
75521;BME280;64102;48.628;9.002;2024-01-25T00:57:48;97148.19;;;7.40;100.00
75521;BME280;64102;48.628;9.002;2024-01-25T01:00:14;97143.03;;;7.40;100.00
75521;BME280;64102;48.628;9.002;2024-01-25T01:02:43;97130.09;;;7.41;100.00
75521;BME280;64102;48.628;9.002;2024-01-25T01:05:09;97131.75;;;7.42;100.00
75521;BME280;64102;48.628;9.002;2024-01-25T01:07:35;97132.22;;;7.49;100.00
75521;BME280;64102;48.628;9.002;2024-01-25T01:10:00;97131.09;;;7.53;100.00
75521;BME280;64102;48.628;9.002;2024-01-25T01:12:26;97133.28;;;7.59;100.00
75521;BME280;64102;48.628;9.002;2024-01-25T01:14:51;97134.22;;;7.58;100.00
75521;BME280;64102;48.628;9.002;2024-01-25T01:17:17;97143.81;;;7.54;100.00
75521;BME280;64102;48.628;9.002;2024-01-25T01:19:43;97142.47;;;7.49;100.00
75521;BME280;64102;48.628;9.002;2024-01-25T01:22:09;97146.16;;;7.45;100.00
75521;BME280;64102;48.628;9.002;2024-01-25T01:24:34;97147.97;;;7.43;100.00
75521;BME280;64102;48.628;9.002;2024-01-25T01:27:00;97150.75;;;7.40;100.00
75521;BME280;64102;48.628;9.002;2024-01-25T01:29:25;97146.78;;;7.34;100.00
75521;BME280;64102;48.628;9.002;2024-01-25T01:31:50;97130.94;;;7.28;100.00
75521;BME280;64102;48.628;9.002;2024-01-25T01:34:16;97130.41;;;7.23;100.00
75521;BME280;64102;48.628;9.002;2024-01-25T01:36:43;97131.41;;;7.20;100.00
75521;BME280;64102;48.628;9.002;2024-01-25T01:39:08;97121.94;;;7.20;100.00
75521;BME280;64102;48.628;9.002;2024-01-25T01:41:34;97123.25;;;7.13;100.00
75521;BME280;64102;48.628;9.002;2024-01-25T01:43:59;97116.81;;;7.06;100.00
75521;BME280;64102;48.628;9.002;2024-01-25T01:46:35;97114.44;;;7.03;100.00
75521;BME280;64102;48.628;9.002;2024-01-25T01:49:03;97114.44;;;7.03;100.00
75521;BME280;64102;48.628;9.002;2024-01-25T01:51:32;97118.75;;;7.03;100.00
75521;BME280;64102;48.628;9.002;2024-01-25T01:54:02;97127.28;;;7.03;100.00
75521;BME280;64102;48.628;9.002;2024-01-25T01:56:28;97125.25;;;6.94;100.00
75521;BME280;64102;48.628;9.002;2024-01-25T01:58:57;97115.00;;;6.94;100.00
75521;BME280;64102;48.628;9.002;2024-01-25T02:01:24;97117.38;;;6.97;100.00
75521;BME280;64102;48.628;9.002;2024-01-25T02:03:50;97110.78;;;6.93;100.00
75521;BME280;64102;48.628;9.002;2024-01-25T02:06:15;97121.16;;;6.92;100.00
75521;BME280;64102;48.628;9.002;2024-01-25T02:08:40;97125.78;;;6.85;100.00
75521;BME280;64102;48.628;9.002;2024-01-25T02:11:06;97115.72;;;6.82;100.00
75521;BME280;64102;48.628;9.002;2024-01-25T02:13:32;97121.75;;;6.81;100.00
75521;BME280;64102;48.628;9.002;2024-01-25T02:15:58;97128.72;;;6.79;100.00
75521;BME280;64102;48.628;9.002;2024-01-25T02:18:23;97127.81;;;6.80;100.00
75521;BME280;64102;48.628;9.002;2024-01-25T02:20:49;97135.69;;;6.77;100.00
75521;BME280;64102;48.628;9.002;2024-01-25T02:23:14;97130.63;;;6.75;100.00
75521;BME280;64102;48.628;9.002;2024-01-25T02:25:39;97131.47;;;6.76;100.00
75521;BME280;64102;48.628;9.002;2024-01-25T02:28:05;97131.28;;;6.79;100.00
75521;BME280;64102;48.628;9.002;2024-01-25T02:30:30;97124.69;;;6.75;100.00
75521;BME280;64102;48.628;9.002;2024-01-25T02:32:56;97127.34;;;6.73;100.00
75521;BME280;64102;48.628;9.002;2024-01-25T02:35:21;97127.34;;;6.73;100.00
75521;BME280;64102;48.628;9.002;2024-01-25T02:37:46;97122.22;;;6.73;100.00
75521;BME280;64102;48.628;9.002;2024-01-25T02:40:12;97121.41;;;6.73;100.00
75521;BME280;64102;48.628;9.002;2024-01-25T02:42:38;97120.66;;;6.71;100.00
75521;BME280;64102;48.628;9.002;2024-01-25T02:45:03;97125.69;;;6.72;100.00
75521;BME280;64102;48.628;9.002;2024-01-25T02:47:29;97115.44;;;6.72;100.00
75521;BME280;64102;48.628;9.002;2024-01-25T02:49:54;97110.38;;;6.71;100.00
75521;BME280;64102;48.628;9.002;2024-01-25T02:52:19;97110.50;;;6.69;100.00
75521;BME280;64102;48.628;9.002;2024-01-25T02:54:45;97095.19;;;6.68;100.00
75521;BME280;64102;48.628;9.002;2024-01-25T02:57:10;97089.88;;;6.71;100.00
75521;BME280;64102;48.628;9.002;2024-01-25T02:59:35;97089.97;;;6.69;100.00
75521;BME280;64102;48.628;9.002;2024-01-25T03:02:00;97085.47;;;6.73;100.00
75521;BME280;64102;48.628;9.002;2024-01-25T03:04:26;97091.59;;;6.70;100.00
75521;BME280;64102;48.628;9.002;2024-01-25T03:06:51;97101.03;;;6.70;100.00
75521;BME280;64102;48.628;9.002;2024-01-25T03:09:16;97105.06;;;6.74;100.00
75521;BME280;64102;48.628;9.002;2024-01-25T03:11:42;97110.94;;;6.76;100.00
75521;BME280;64102;48.628;9.002;2024-01-25T03:14:07;97112.59;;;6.77;100.00
75521;BME280;64102;48.628;9.002;2024-01-25T03:16:33;97103.81;;;6.81;100.00
75521;BME280;64102;48.628;9.002;2024-01-25T03:18:58;97112.97;;;6.85;100.00
75521;BME280;64102;48.628;9.002;2024-01-25T03:21:23;97113.03;;;6.84;100.00
75521;BME280;64102;48.628;9.002;2024-01-25T03:23:49;97125.59;;;6.88;100.00
75521;BME280;64102;48.628;9.002;2024-01-25T03:26:14;97121.41;;;6.87;100.00
75521;BME280;64102;48.628;9.002;2024-01-25T03:28:39;97130.19;;;6.83;100.00
75521;BME280;64102;48.628;9.002;2024-01-25T03:31:05;97128.00;;;6.77;100.00
75521;BME280;64102;48.628;9.002;2024-01-25T03:33:31;97128.81;;;6.78;100.00
75521;BME280;64102;48.628;9.002;2024-01-25T03:36:04;97123.13;;;6.72;100.00
75521;BME280;64102;48.628;9.002;2024-01-25T03:38:30;97124.38;;;6.65;100.00
75521;BME280;64102;48.628;9.002;2024-01-25T03:40:55;97120.00;;;6.67;100.00
75521;BME280;64102;48.628;9.002;2024-01-25T03:43:26;97131.16;;;6.66;100.00
75521;BME280;64102;48.628;9.002;2024-01-25T03:45:52;97136.47;;;6.63;100.00
75521;BME280;64102;48.628;9.002;2024-01-25T03:48:17;97149.56;;;6.59;100.00
75521;BME280;64102;48.628;9.002;2024-01-25T03:50:42;97154.78;;;6.57;100.00
75521;BME280;64102;48.628;9.002;2024-01-25T03:53:08;97154.13;;;6.54;100.00
75521;BME280;64102;48.628;9.002;2024-01-25T03:55:33;97158.50;;;6.52;100.00
75521;BME280;64102;48.628;9.002;2024-01-25T03:57:59;97161.81;;;6.54;100.00
75521;BME280;64102;48.628;9.002;2024-01-25T04:00:24;97164.31;;;6.55;100.00
75521;BME280;64102;48.628;9.002;2024-01-25T04:02:50;97170.44;;;6.53;100.00
75521;BME280;64102;48.628;9.002;2024-01-25T04:05:16;97175.72;;;6.50;100.00
75521;BME280;64102;48.628;9.002;2024-01-25T04:07:41;97181.88;;;6.47;100.00
75521;BME280;64102;48.628;9.002;2024-01-25T04:10:06;97182.69;;;6.48;100.00
75521;BME280;64102;48.628;9.002;2024-01-25T04:12:32;97183.63;;;6.47;100.00
75521;BME280;64102;48.628;9.002;2024-01-25T04:14:58;97182.78;;;6.46;100.00
75521;BME280;64102;48.628;9.002;2024-01-25T04:17:24;97186.25;;;6.45;100.00
75521;BME280;64102;48.628;9.002;2024-01-25T04:19:49;97198.63;;;6.53;100.00
75521;BME280;64102;48.628;9.002;2024-01-25T04:22:14;97196.97;;;6.52;100.00
75521;BME280;64102;48.628;9.002;2024-01-25T04:24:40;97190.22;;;6.51;100.00
75521;BME280;64102;48.628;9.002;2024-01-25T04:27:05;97190.94;;;6.53;100.00
75521;BME280;64102;48.628;9.002;2024-01-25T04:29:31;97199.72;;;6.49;100.00
75521;BME280;64102;48.628;9.002;2024-01-25T04:31:56;97198.25;;;6.45;100.00
75521;BME280;64102;48.628;9.002;2024-01-25T04:34:22;97204.47;;;6.41;100.00
75521;BME280;64102;48.628;9.002;2024-01-25T04:36:47;97211.38;;;6.39;100.00
75521;BME280;64102;48.628;9.002;2024-01-25T04:39:12;97204.47;;;6.41;100.00
75521;BME280;64102;48.628;9.002;2024-01-25T04:41:38;97207.94;;;6.40;100.00
75521;BME280;64102;48.628;9.002;2024-01-25T04:44:03;97207.03;;;6.41;100.00
75521;BME280;64102;48.628;9.002;2024-01-25T04:46:29;97201.97;;;6.39;100.00
75521;BME280;64102;48.628;9.002;2024-01-25T04:49:00;97207.03;;;6.41;100.00
75521;BME280;64102;48.628;9.002;2024-01-25T04:51:25;97211.38;;;6.39;100.00
75521;BME280;64102;48.628;9.002;2024-01-25T04:53:51;97205.63;;;6.35;100.00
75521;BME280;64102;48.628;9.002;2024-01-25T04:56:16;97206.69;;;6.31;100.00
75521;BME280;64102;48.628;9.002;2024-01-25T04:58:41;97217.13;;;6.28;100.00
75521;BME280;64102;48.628;9.002;2024-01-25T05:01:07;97214.81;;;6.23;100.00
75521;BME280;64102;48.628;9.002;2024-01-25T05:03:32;97221.03;;;6.19;100.00
75521;BME280;64102;48.628;9.002;2024-01-25T05:05:58;97225.50;;;6.16;100.00
75521;BME280;64102;48.628;9.002;2024-01-25T05:08:23;97230.78;;;6.13;100.00
75521;BME280;64102;48.628;9.002;2024-01-25T05:10:48;97239.47;;;6.10;100.00
75521;BME280;64102;48.628;9.002;2024-01-25T05:13:14;97235.31;;;6.08;100.00
75521;BME280;64102;48.628;9.002;2024-01-25T05:15:39;97235.31;;;6.08;100.00
75521;BME280;64102;48.628;9.002;2024-01-25T05:18:05;97231.13;;;6.07;100.00
75521;BME280;64102;48.628;9.002;2024-01-25T05:20:31;97231.03;;;6.08;100.00
75521;BME280;64102;48.628;9.002;2024-01-25T05:23:02;97231.78;;;6.10;100.00
75521;BME280;64102;48.628;9.002;2024-01-25T05:25:29;97230.19;;;6.08;100.00
75521;BME280;64102;48.628;9.002;2024-01-25T05:27:55;97231.19;;;6.05;100.00
75521;BME280;64102;48.628;9.002;2024-01-25T05:30:24;97227.88;;;6.03;100.00
75521;BME280;64102;48.628;9.002;2024-01-25T05:32:50;97233.19;;;6.00;100.00
75521;BME280;64102;48.628;9.002;2024-01-25T05:35:16;97238.28;;;6.00;100.00
75521;BME280;64102;48.628;9.002;2024-01-25T05:37:42;97233.81;;;6.04;100.00
75521;BME280;64102;48.628;9.002;2024-01-25T05:40:08;97238.94;;;6.04;100.00
75521;BME280;64102;48.628;9.002;2024-01-25T05:42:37;97236.63;;;5.99;100.00
75521;BME280;64102;48.628;9.002;2024-01-25T05:45:03;97241.94;;;5.96;100.00
75521;BME280;64102;48.628;9.002;2024-01-25T05:47:29;97244.66;;;5.93;100.00
75521;BME280;64102;48.628;9.002;2024-01-25T05:49:55;97249.03;;;5.91;100.00
75521;BME280;64102;48.628;9.002;2024-01-25T05:52:20;97254.91;;;5.93;100.00
75521;BME280;64102;48.628;9.002;2024-01-25T05:54:47;97260.09;;;5.92;100.00
75521;BME280;64102;48.628;9.002;2024-01-25T05:57:12;97260.38;;;5.85;100.00
75521;BME280;64102;48.628;9.002;2024-01-25T05:59:38;97256.44;;;5.80;100.00
75521;BME280;64102;48.628;9.002;2024-01-25T06:02:04;97254.13;;;5.75;100.00
75521;BME280;64102;48.628;9.002;2024-01-25T06:04:30;97254.19;;;5.74;100.00
75521;BME280;64102;48.628;9.002;2024-01-25T06:06:56;97254.25;;;5.72;100.00
75521;BME280;64102;48.628;9.002;2024-01-25T06:09:21;97257.72;;;5.71;100.00
75521;BME280;64102;48.628;9.002;2024-01-25T06:11:46;97258.56;;;5.72;100.00
75521;BME280;64102;48.628;9.002;2024-01-25T06:14:12;97256.22;;;5.67;100.00
75521;BME280;64102;48.628;9.002;2024-01-25T06:16:37;97256.56;;;5.61;100.00
75521;BME280;64102;48.628;9.002;2024-01-25T06:19:03;97259.50;;;5.54;100.00
75521;BME280;64102;48.628;9.002;2024-01-25T06:21:28;97251.25;;;5.49;100.00
75521;BME280;64102;48.628;9.002;2024-01-25T06:23:53;97250.72;;;5.42;100.00
75521;BME280;64102;48.628;9.002;2024-01-25T06:26:19;97247.66;;;5.35;100.00
75521;BME280;64102;48.628;9.002;2024-01-25T06:28:44;97250.69;;;5.26;100.00
75521;BME280;64102;48.628;9.002;2024-01-25T06:31:10;97244.38;;;5.16;100.00
75521;BME280;64102;48.628;9.002;2024-01-25T06:33:36;97240.31;;;5.12;100.00
75521;BME280;64102;48.628;9.002;2024-01-25T06:36:01;97252.28;;;5.12;100.00
75521;BME280;64102;48.628;9.002;2024-01-25T06:38:27;97247.78;;;5.00;100.00
75521;BME280;64102;48.628;9.002;2024-01-25T06:40:52;97250.56;;;4.95;100.00
75521;BME280;64102;48.628;9.002;2024-01-25T06:43:17;97254.03;;;4.94;100.00
75521;BME280;64102;48.628;9.002;2024-01-25T06:45:43;97251.63;;;4.91;100.00
75521;BME280;64102;48.628;9.002;2024-01-25T06:48:08;97254.47;;;4.85;100.00
75521;BME280;64102;48.628;9.002;2024-01-25T06:50:34;97258.97;;;4.80;100.00
75521;BME280;64102;48.628;9.002;2024-01-25T06:53:00;97265.75;;;4.64;100.00
75521;BME280;64102;48.628;9.002;2024-01-25T06:55:25;97264.47;;;4.55;100.00
75521;BME280;64102;48.628;9.002;2024-01-25T06:57:50;97270.47;;;4.54;100.00
75521;BME280;64102;48.628;9.002;2024-01-25T07:00:16;97269.50;;;4.38;100.00
75521;BME280;64102;48.628;9.002;2024-01-25T07:02:42;97278.31;;;4.32;100.00
75521;BME280;64102;48.628;9.002;2024-01-25T07:05:08;97288.44;;;4.34;100.00
75521;BME280;64102;48.628;9.002;2024-01-25T07:07:33;97284.16;;;4.34;100.00
75521;BME280;64102;48.628;9.002;2024-01-25T07:09:59;97290.03;;;4.36;100.00
75521;BME280;64102;48.628;9.002;2024-01-25T07:12:24;97286.81;;;4.33;100.00
75521;BME280;64102;48.628;9.002;2024-01-25T07:14:50;97289.84;;;4.41;100.00
75521;BME280;64102;48.628;9.002;2024-01-25T07:17:15;97280.44;;;4.41;100.00
75521;BME280;64102;48.628;9.002;2024-01-25T07:19:40;97271.56;;;4.48;100.00
75521;BME280;64102;48.628;9.002;2024-01-25T07:22:06;97260.63;;;4.64;100.00
75521;BME280;64102;48.628;9.002;2024-01-25T07:24:31;97257.75;;;4.70;100.00
75521;BME280;64102;48.628;9.002;2024-01-25T07:26:57;97271.69;;;4.81;100.00
75521;BME280;64102;48.628;9.002;2024-01-25T07:29:22;97273.94;;;4.87;100.00
75521;BME280;64102;48.628;9.002;2024-01-25T07:31:48;97271.47;;;5.03;100.00
75521;BME280;64102;48.628;9.002;2024-01-25T07:34:13;97281.47;;;5.08;100.00
75521;BME280;64102;48.628;9.002;2024-01-25T07:36:38;97278.81;;;5.09;100.00
75521;BME280;64102;48.628;9.002;2024-01-25T07:39:04;97275.59;;;5.23;100.00
75521;BME280;64102;48.628;9.002;2024-01-25T07:41:29;97272.28;;;5.38;100.00
75521;BME280;64102;48.628;9.002;2024-01-25T07:43:55;97278.78;;;5.61;100.00
75521;BME280;64102;48.628;9.002;2024-01-25T07:46:21;97278.56;;;5.81;100.00
75521;BME280;64102;48.628;9.002;2024-01-25T07:48:47;97287.56;;;6.05;100.00
75521;BME280;64102;48.628;9.002;2024-01-25T07:51:13;97288.31;;;6.39;100.00
75521;BME280;64102;48.628;9.002;2024-01-25T07:53:39;97290.53;;;6.45;100.00
75521;BME280;64102;48.628;9.002;2024-01-25T07:56:06;97292.69;;;6.68;100.00
75521;BME280;64102;48.628;9.002;2024-01-25T07:58:32;97295.25;;;6.68;100.00
75521;BME280;64102;48.628;9.002;2024-01-25T08:00:58;97296.94;;;6.83;100.00
75521;BME280;64102;48.628;9.002;2024-01-25T08:03:23;97291.34;;;6.77;100.00
75521;BME280;64102;48.628;9.002;2024-01-25T08:05:48;97295.25;;;6.68;100.00
75521;BME280;64102;48.628;9.002;2024-01-25T08:08:14;97279.59;;;6.57;100.00
75521;BME280;64102;48.628;9.002;2024-01-25T08:10:39;97268.75;;;6.67;100.00
75521;BME280;64102;48.628;9.002;2024-01-25T08:13:04;97270.94;;;6.89;100.00
75521;BME280;64102;48.628;9.002;2024-01-25T08:15:30;97269.28;;;7.32;100.00
75521;BME280;64102;48.628;9.002;2024-01-25T08:17:55;97272.72;;;7.47;100.00
75521;BME280;64102;48.628;9.002;2024-01-25T08:20:20;97259.41;;;7.54;100.00
75521;BME280;64102;48.628;9.002;2024-01-25T08:22:46;97255.75;;;7.87;100.00
75521;BME280;64102;48.628;9.002;2024-01-25T08:25:12;97261.34;;;8.07;100.00
75521;BME280;64102;48.628;9.002;2024-01-25T08:27:39;97256.88;;;8.38;100.00
75521;BME280;64102;48.628;9.002;2024-01-25T08:30:05;97258.69;;;8.50;100.00
75521;BME280;64102;48.628;9.002;2024-01-25T08:32:31;97259.28;;;8.80;100.00
75521;BME280;64102;48.628;9.002;2024-01-25T08:34:56;97260.66;;;8.98;100.00
75521;BME280;64102;48.628;9.002;2024-01-25T08:37:21;97265.72;;;9.00;100.00
75521;BME280;64102;48.628;9.002;2024-01-25T08:39:47;97260.22;;;9.19;99.81
75521;BME280;64102;48.628;9.002;2024-01-25T08:42:16;97260.22;;;9.31;99.06
75521;BME280;64102;48.628;9.002;2024-01-25T08:44:42;97261.97;;;9.56;96.91
75521;BME280;64102;48.628;9.002;2024-01-25T08:47:14;97263.09;;;9.52;98.04
75521;BME280;64102;48.628;9.002;2024-01-25T08:49:40;97271.97;;;9.48;98.35
75521;BME280;64102;48.628;9.002;2024-01-25T08:52:06;97271.03;;;9.74;96.53
75521;BME280;64102;48.628;9.002;2024-01-25T08:54:32;97274.22;;;10.52;90.95
75521;BME280;64102;48.628;9.002;2024-01-25T08:56:57;97274.09;;;10.77;85.90
75521;BME280;64102;48.628;9.002;2024-01-25T08:59:23;97279.09;;;10.44;87.35
75521;BME280;64102;48.628;9.002;2024-01-25T09:01:48;97289.88;;;10.00;90.56
75521;BME280;64102;48.628;9.002;2024-01-25T09:04:13;97294.63;;;10.19;89.86
75521;BME280;64102;48.628;9.002;2024-01-25T09:06:39;97299.28;;;10.50;85.36
75521;BME280;64102;48.628;9.002;2024-01-25T09:09:04;97303.75;;;10.96;81.66
75521;BME280;64102;48.628;9.002;2024-01-25T09:11:30;97297.50;;;10.87;81.27
75521;BME280;64102;48.628;9.002;2024-01-25T09:13:56;97300.66;;;11.14;81.13
75521;BME280;64102;48.628;9.002;2024-01-25T09:16:22;97302.00;;;11.31;78.84
75521;BME280;64102;48.628;9.002;2024-01-25T09:18:47;97300.13;;;11.79;75.14
75521;BME280;64102;48.628;9.002;2024-01-25T09:21:13;97306.97;;;11.91;73.57
75521;BME280;64102;48.628;9.002;2024-01-25T09:23:39;97310.06;;;11.61;73.54
75521;BME280;64102;48.628;9.002;2024-01-25T09:26:05;97312.34;;;11.31;75.54
75521;BME280;64102;48.628;9.002;2024-01-25T09:28:30;97318.00;;;11.47;74.42
75521;BME280;64102;48.628;9.002;2024-01-25T09:30:55;97318.19;;;11.68;73.94
75521;BME280;64102;48.628;9.002;2024-01-25T09:33:21;97323.47;;;11.66;73.08
75521;BME280;64102;48.628;9.002;2024-01-25T09:35:46;97326.78;;;12.69;67.60
75521;BME280;64102;48.628;9.002;2024-01-25T09:38:13;97329.06;;;13.37;63.35
75521;BME280;64102;48.628;9.002;2024-01-25T09:40:38;97325.47;;;12.85;65.08
75521;BME280;64102;48.628;9.002;2024-01-25T09:43:04;97323.50;;;13.10;64.31
75521;BME280;64102;48.628;9.002;2024-01-25T09:45:31;97327.44;;;13.57;60.83
75521;BME280;64102;48.628;9.002;2024-01-25T09:47:56;97325.50;;;14.00;59.97
75521;BME280;64102;48.628;9.002;2024-01-25T09:50:22;97328.47;;;12.47;68.24
75521;BME280;64102;48.628;9.002;2024-01-25T09:52:53;97331.75;;;10.89;79.51
75521;BME280;64102;48.628;9.002;2024-01-25T09:55:26;97337.41;;;12.10;71.82
75521;BME280;64102;48.628;9.002;2024-01-25T09:57:55;97341.66;;;12.00;73.99
75521;BME280;64102;48.628;9.002;2024-01-25T10:00:24;97342.06;;;10.78;81.22
75521;BME280;64102;48.628;9.002;2024-01-25T10:02:50;97353.53;;;10.25;88.44
75521;BME280;64102;48.628;9.002;2024-01-25T10:05:18;97344.03;;;9.87;91.76
75521;BME280;64102;48.628;9.002;2024-01-25T10:07:45;97349.25;;;9.48;95.80
75521;BME280;64102;48.628;9.002;2024-01-25T10:10:12;97347.13;;;9.67;96.39
75521;BME280;64102;48.628;9.002;2024-01-25T10:12:39;97347.59;;;9.34;96.66
75521;BME280;64102;48.628;9.002;2024-01-25T10:15:05;97343.09;;;9.11;99.07
75521;BME280;64102;48.628;9.002;2024-01-25T10:17:31;97347.19;;;9.28;97.33
75521;BME280;64102;48.628;9.002;2024-01-25T10:19:56;97350.81;;;8.84;100.00
75521;BME280;64102;48.628;9.002;2024-01-25T10:22:22;97348.13;;;9.00;100.00
75521;BME280;64102;48.628;9.002;2024-01-25T10:24:48;97340.47;;;9.38;100.00
75521;BME280;64102;48.628;9.002;2024-01-25T10:27:15;97336.72;;;9.17;100.00
75521;BME280;64102;48.628;9.002;2024-01-25T10:29:41;97336.78;;;9.42;98.77
75521;BME280;64102;48.628;9.002;2024-01-25T10:32:08;97327.25;;;9.17;98.63
75521;BME280;64102;48.628;9.002;2024-01-25T10:34:38;97323.44;;;10.49;92.76
75521;BME280;64102;48.628;9.002;2024-01-25T10:37:05;97331.03;;;10.14;93.30
75521;BME280;64102;48.628;9.002;2024-01-25T10:39:32;97334.34;;;9.66;95.87
75521;BME280;64102;48.628;9.002;2024-01-25T10:41:58;97329.16;;;9.91;95.13
75521;BME280;64102;48.628;9.002;2024-01-25T10:44:24;97332.28;;;10.09;88.12
75521;BME280;64102;48.628;9.002;2024-01-25T10:46:49;97338.88;;;10.25;87.62
75521;BME280;64102;48.628;9.002;2024-01-25T10:49:16;97330.63;;;10.33;88.46
75521;BME280;64102;48.628;9.002;2024-01-25T10:51:43;97325.69;;;10.17;91.01
75521;BME280;64102;48.628;9.002;2024-01-25T10:54:09;97324.16;;;10.88;85.32
75521;BME280;64102;48.628;9.002;2024-01-25T10:56:35;97328.19;;;11.03;81.59
75521;BME280;64102;48.628;9.002;2024-01-25T10:59:00;97319.41;;;11.40;75.10
75521;BME280;64102;48.628;9.002;2024-01-25T11:01:27;97310.13;;;11.73;74.88
75521;BME280;64102;48.628;9.002;2024-01-25T11:03:52;97301.91;;;12.77;67.27
75521;BME280;64102;48.628;9.002;2024-01-25T11:06:20;97303.31;;;11.83;68.70
75521;BME280;64102;48.628;9.002;2024-01-25T11:08:47;97304.94;;;12.39;69.64
75521;BME280;64102;48.628;9.002;2024-01-25T11:11:13;97296.91;;;14.61;57.26
75521;BME280;64102;48.628;9.002;2024-01-25T11:13:41;97288.88;;;15.31;53.43
75521;BME280;64102;48.628;9.002;2024-01-25T11:16:17;97285.63;;;16.59;50.23
75521;BME280;64102;48.628;9.002;2024-01-25T11:18:53;97284.41;;;14.36;55.19
75521;BME280;64102;48.628;9.002;2024-01-25T11:21:29;97277.41;;;12.38;63.93
75521;BME280;64102;48.628;9.002;2024-01-25T11:24:03;97269.81;;;11.35;71.14
75521;BME280;64102;48.628;9.002;2024-01-25T11:26:31;97262.38;;;12.10;66.80
75521;BME280;64102;48.628;9.002;2024-01-25T11:28:57;97263.28;;;13.59;59.69
75521;BME280;64102;48.628;9.002;2024-01-25T11:31:25;97250.13;;;14.51;54.42
75521;BME280;64102;48.628;9.002;2024-01-25T11:33:51;97252.69;;;14.02;54.60
75521;BME280;64102;48.628;9.002;2024-01-25T11:36:20;97246.66;;;13.20;57.65
75521;BME280;64102;48.628;9.002;2024-01-25T11:38:45;97244.69;;;14.14;54.55
75521;BME280;64102;48.628;9.002;2024-01-25T11:41:11;97240.16;;;15.23;51.18
75521;BME280;64102;48.628;9.002;2024-01-25T11:43:36;97242.41;;;12.01;59.81
75521;BME280;64102;48.628;9.002;2024-01-25T11:46:01;97246.47;;;10.43;69.11
75521;BME280;64102;48.628;9.002;2024-01-25T11:48:27;97245.09;;;10.01;74.53
75521;BME280;64102;48.628;9.002;2024-01-25T11:50:52;97244.91;;;9.92;75.72
75521;BME280;64102;48.628;9.002;2024-01-25T11:53:20;97244.22;;;10.39;74.42
75521;BME280;64102;48.628;9.002;2024-01-25T11:55:46;97245.00;;;10.03;75.00
75521;BME280;64102;48.628;9.002;2024-01-25T11:58:11;97241.56;;;10.15;75.95
75521;BME280;64102;48.628;9.002;2024-01-25T12:00:36;97242.03;;;12.05;63.43
75521;BME280;64102;48.628;9.002;2024-01-25T12:03:02;97237.69;;;12.17;62.70
75521;BME280;64102;48.628;9.002;2024-01-25T12:05:28;97235.44;;;11.46;66.14
75521;BME280;64102;48.628;9.002;2024-01-25T12:07:54;97236.44;;;13.39;57.37
75521;BME280;64102;48.628;9.002;2024-01-25T12:10:19;97237.22;;;12.66;59.18
75521;BME280;64102;48.628;9.002;2024-01-25T12:12:45;97221.13;;;14.56;53.15
75521;BME280;64102;48.628;9.002;2024-01-25T12:15:10;97223.75;;;14.56;51.94
75521;BME280;64102;48.628;9.002;2024-01-25T12:17:36;97225.25;;;15.26;49.18
75521;BME280;64102;48.628;9.002;2024-01-25T12:20:02;97219.66;;;16.94;45.00
75521;BME280;64102;48.628;9.002;2024-01-25T12:22:28;97216.06;;;17.13;44.25
75521;BME280;64102;48.628;9.002;2024-01-25T12:24:55;97214.88;;;17.07;44.40
75521;BME280;64102;48.628;9.002;2024-01-25T12:27:25;97213.56;;;16.40;45.03
75521;BME280;64102;48.628;9.002;2024-01-25T12:29:51;97210.91;;;17.21;44.88
75521;BME280;64102;48.628;9.002;2024-01-25T12:32:21;97201.19;;;15.70;47.56
75521;BME280;64102;48.628;9.002;2024-01-25T12:34:57;97198.72;;;14.74;49.55
75521;BME280;64102;48.628;9.002;2024-01-25T12:37:23;97195.59;;;14.42;51.20
75521;BME280;64102;48.628;9.002;2024-01-25T12:39:51;97191.28;;;15.83;47.80
75521;BME280;64102;48.628;9.002;2024-01-25T12:42:17;97185.91;;;15.57;47.99
75521;BME280;64102;48.628;9.002;2024-01-25T12:44:42;97188.69;;;16.73;46.24
75521;BME280;64102;48.628;9.002;2024-01-25T12:47:08;97181.69;;;17.61;43.16
75521;BME280;64102;48.628;9.002;2024-01-25T12:49:33;97177.06;;;17.80;42.42
75521;BME280;64102;48.628;9.002;2024-01-25T12:51:59;97183.38;;;19.18;39.60
75521;BME280;64102;48.628;9.002;2024-01-25T12:54:24;97179.31;;;18.84;39.67